Decoded Metar for LFOP (ROUEN in FRANCE) (IATA:URO) | Meteo·Mobile Aviation Weather
aviador You're here:

LFOP Decoded Metar

ROUEN in FRANCE
Report Time2018-10-18 16:00:00
UTC Time2018-10-18 16:30:46
Flight Rules vfr VFR
Wind040° at 11 kt
W.Decomp.*RWY 04: 11.0 kt HW -0 kt LCW
RWY 05: 10.8 kt HW 1.9 kt LCW
W.Rank040° ranks 16
Current wind is above 040° avg. (6.5)
Visibility9999 m
Phenomena:N/A
Clouds:N/A
Expected CloudBase > 2,800 ft AGL from Temp-Dew spread
CeilingNone
Temp17°C (ISA +3)
Dew Point10°C (64% RH)
AAT13.1°C
QNH1022 hPa
Density Alt735 ft
Elevation515 ft
Report Wrong Elevation
Raw Report
LFOP 181600Z AUTO 04011KT CAVOK 17/10 Q1022 NOSIG=

Extra information for LFOP:More info

Metar Taf Metar & Taf Last 4 Metars F.Rules Stats Wind Profile Meteogram Temp Stats Airport Information Weather charts Add Link Nearby VenuesMetar ALERT Operation Metar Decoded Social comments